Time;durP1;ratioP1;P1;durP2;ratioP2;P2;SDS_P1;SDS_P2;PMS_P1;PMS_P2;Temp;Humidity;BMP_temperature;BMP_pressure;BME280_temperature;BME280_humidity;BME280_pressure;Samples;Min_cycle;Max_cycle;Signal;HPM_P1;HPM_P2
2023/02/28 00:00:55;;;;;;;9.80;5.20;;;;;;;-0.30;78.99;102411.54;108778;1256;72649;-76
2023/02/28 00:03:22;;;;;;;8.80;5.20;;;;;;;-0.31;79.32;102409.88;108779;1257;62198;-76
2023/02/28 00:05:49;;;;;;;11.20;5.80;;;;;;;-0.33;79.40;102411.52;108810;1260;59433;-75
2023/02/28 00:08:19;;;;;;;10.40;5.60;;;;;;;-0.33;79.72;102411.33;108752;1260;74897;-75
2023/02/28 00:10:46;;;;;;;11.50;6.00;;;;;;;-0.31;80.16;102410.38;108727;1258;69719;-75
2023/02/28 00:13:18;;;;;;;8.20;5.40;;;;;;;-0.28;80.24;102410.23;108627;1256;71542;-75
2023/02/28 00:15:45;;;;;;;10.40;5.30;;;;;;;-0.23;80.29;102409.17;108814;1257;60481;-76
2023/02/28 00:18:13;;;;;;;10.60;5.40;;;;;;;-0.19;80.47;102406.23;108664;1257;59748;-75
2023/02/28 00:20:40;;;;;;;9.80;5.50;;;;;;;-0.16;80.40;102405.09;108798;1257;74822;-75
2023/02/28 00:23:06;;;;;;;11.40;5.40;;;;;;;-0.15;80.30;102403.64;108695;1257;71187;-76
2023/02/28 00:25:33;;;;;;;12.30;4.90;;;;;;;-0.12;80.45;102403.17;108624;1257;71713;-75
2023/02/28 00:28:00;;;;;;;9.90;4.50;;;;;;;-0.10;80.35;102400.48;108652;1260;60787;-75
2023/02/28 00:30:27;;;;;;;11.10;4.20;;;;;;;-0.09;80.48;102399.21;108724;1262;59110;-74
2023/02/28 00:32:54;;;;;;;8.10;4.70;;;;;;;-0.10;80.52;102399.08;108694;1256;73403;-75
2023/02/28 00:35:23;;;;;;;7.40;4.90;;;;;;;-0.09;80.46;102399.57;108698;1263;70325;-75
2023/02/28 00:37:50;;;;;;;10.60;4.80;;;;;;;-0.10;80.47;102397.52;108621;1258;71499;-75
2023/02/28 00:40:17;;;;;;;8.80;4.70;;;;;;;-0.09;80.68;102396.60;108681;1257;61536;-75
2023/02/28 00:42:44;;;;;;;8.40;4.70;;;;;;;-0.08;80.55;102395.16;108672;1258;60812;-75
2023/02/28 00:45:11;;;;;;;7.60;4.20;;;;;;;-0.07;80.59;102396.02;108682;1263;75146;-75
2023/02/28 00:47:38;;;;;;;7.80;4.40;;;;;;;-0.09;80.50;102397.44;108589;1257;69942;-75
2023/02/28 00:50:05;;;;;;;11.60;4.90;;;;;;;-0.10;80.44;102394.90;108618;1257;71308;-75
2023/02/28 00:52:32;;;;;;;9.00;4.60;;;;;;;-0.13;80.44;102397.27;108533;1257;60933;-75
2023/02/28 00:55:00;;;;;;;8.40;4.70;;;;;;;-0.19;80.27;102401.38;108724;1256;58990;-75
2023/02/28 00:57:27;;;;;;;8.70;4.60;;;;;;;-0.25;80.49;102399.88;108529;1263;74060;-75
2023/02/28 00:59:56;;;;;;;8.60;4.90;;;;;;;-0.33;80.28;102401.95;108645;1262;70062;-75
2023/02/28 01:02:24;;;;;;;9.20;4.90;;;;;;;-0.42;80.39;102401.27;108652;1257;71283;-75
2023/02/28 01:04:50;;;;;;;6.90;4.50;;;;;;;-0.51;80.54;102404.58;108811;1257;62664;-75
2023/02/28 01:07:17;;;;;;;8.40;4.50;;;;;;;-0.58;80.67;102400.34;108786;1257;59122;-75
2023/02/28 01:09:44;;;;;;;8.40;4.10;;;;;;;-0.66;80.82;102403.40;108744;1257;74028;-75
2023/02/28 01:12:11;;;;;;;9.70;4.90;;;;;;;-0.73;81.09;102403.35;108644;1258;71747;-75
2023/02/28 01:14:38;;;;;;;7.50;4.30;;;;;;;-0.79;81.24;102402.39;108708;1258;72253;-75
2023/02/28 01:17:05;;;;;;;9.40;5.00;;;;;;;-0.88;81.19;102403.75;108646;1257;60701;-75
2023/02/28 01:19:32;;;;;;;7.60;4.70;;;;;;;-0.96;81.34;102401.30;108637;1257;59201;-75
2023/02/28 01:22:04;;;;;;;10.40;4.90;;;;;;;-1.07;81.63;102400.29;108805;1257;73342;-75
2023/02/28 01:24:31;;;;;;;9.20;5.00;;;;;;;-1.16;81.60;102402.02;108749;1257;69865;-75
2023/02/28 01:27:00;;;;;;;8.10;4.50;;;;;;;-1.23;81.79;102402.98;108598;1261;72670;-75
2023/02/28 01:29:27;;;;;;;8.90;5.00;;;;;;;-1.31;82.12;102400.48;108603;1257;60689;-75
2023/02/28 01:31:54;;;;;;;11.30;4.80;;;;;;;-1.39;82.28;102403.38;108651;1257;60810;-75
2023/02/28 01:34:21;;;;;;;9.30;5.30;;;;;;;-1.46;82.64;102413.02;108664;1257;73158;-75
2023/02/28 01:36:47;;;;;;;10.00;5.30;;;;;;;-1.53;82.69;102410.13;108646;1257;70319;-75
2023/02/28 01:39:15;;;;;;;9.60;5.20;;;;;;;-1.59;82.70;102406.00;108817;1256;71528;-75
2023/02/28 01:41:42;;;;;;;8.60;5.00;;;;;;;-1.64;82.81;102403.39;108781;1260;61830;-75
2023/02/28 01:44:56;;;;;;;9.30;4.80;;;;;;;-1.71;83.00;102401.55;108818;1257;60065;-75
2023/02/28 01:47:29;;;;;;;8.20;4.70;;;;;;;-1.79;83.04;102396.13;108677;1258;73476;-76
2023/02/28 01:49:57;;;;;;;8.60;4.70;;;;;;;-1.83;83.19;102397.83;108821;1257;70253;-76
2023/02/28 01:52:24;;;;;;;12.10;5.30;;;;;;;-1.88;83.51;102400.74;108775;1256;71380;-76
2023/02/28 01:54:55;;;;;;;7.30;4.00;;;;;;;-1.94;83.36;102398.56;108806;1260;61012;-76
2023/02/28 01:57:26;;;;;;;8.70;4.60;;;;;;;-2.02;83.50;102404.20;108792;1257;59503;-76
2023/02/28 02:00:07;;;;;;;11.00;4.90;;;;;;;-2.08;83.99;102400.40;108817;1257;73340;-76
2023/02/28 02:02:34;;;;;;;9.40;4.60;;;;;;;-2.15;84.27;102399.05;108792;1258;69961;-76
2023/02/28 02:05:09;;;;;;;8.90;5.10;;;;;;;-2.19;84.40;102398.35;108788;1257;72606;-76
2023/02/28 02:07:39;;;;;;;10.10;5.10;;;;;;;-2.25;84.46;102399.91;108815;1256;62102;-76
2023/02/28 02:10:21;;;;;;;8.40;5.00;;;;;;;-2.30;84.66;102398.34;108804;1257;60114;-76
2023/02/28 02:13:31;;;;;;;9.20;5.00;;;;;;;-2.36;84.96;102394.73;108775;1257;73510;-76
2023/02/28 02:16:04;;;;;;;10.00;5.40;;;;;;;-2.42;85.14;102391.81;108677;1257;71289;-76
2023/02/28 02:19:02;;;;;;;9.90;5.10;;;;;;;-2.48;85.40;102391.11;108789;1257;73180;-76
2023/02/28 02:21:56;;;;;;;8.40;5.10;;;;;;;-2.54;85.59;102385.07;108765;1257;61911;-76
2023/02/28 02:25:04;;;;;;;8.30;5.00;;;;;;;-2.59;85.79;102385.04;108839;1257;59450;-76
2023/02/28 02:28:18;;;;;;;10.70;6.20;;;;;;;-2.64;86.09;102381.92;108755;1256;73240;-76
2023/02/28 02:31:22;;;;;;;8.40;5.60;;;;;;;-2.69;86.05;102380.70;108370;1257;69181;-76
2023/02/28 02:34:28;;;;;;;8.10;4.80;;;;;;;-2.72;86.37;102375.42;108731;1257;72760;-76
2023/02/28 02:37:21;;;;;;;8.70;4.70;;;;;;;-2.75;86.41;102374.64;108755;1257;62905;-76
2023/02/28 02:40:00;;;;;;;8.00;4.50;;;;;;;-2.78;86.36;102369.89;108820;1256;60790;-76
2023/02/28 02:43:03;;;;;;;8.60;4.80;;;;;;;-2.79;86.52;102372.70;108755;1257;73501;-76
2023/02/28 02:46:02;;;;;;;8.70;4.70;;;;;;;-2.81;86.65;102372.92;108830;1256;70222;-76
2023/02/28 02:48:33;;;;;;;9.00;4.90;;;;;;;-2.84;86.54;102373.38;108796;1257;70192;-76
2023/02/28 02:51:03;;;;;;;7.00;4.60;;;;;;;-2.87;86.77;102372.08;108752;1258;62030;-77
2023/02/28 02:53:36;;;;;;;8.70;4.50;;;;;;;-2.91;87.11;102375.47;108749;1256;59009;-76
2023/02/28 02:56:05;;;;;;;6.60;4.30;;;;;;;-2.94;87.33;102376.76;108807;1260;73175;-76
2023/02/28 02:58:41;;;;;;;7.50;4.90;;;;;;;-2.96;87.29;102378.39;108615;1257;69665;-76
2023/02/28 03:01:13;;;;;;;9.80;4.80;;;;;;;-2.98;87.54;102374.67;108812;1256;71264;-76
2023/02/28 03:03:41;;;;;;;7.80;4.70;;;;;;;-3.01;87.67;102380.48;108694;1260;60808;-76
2023/02/28 03:06:08;;;;;;;8.30;4.80;;;;;;;-3.04;87.77;102377.95;108711;1256;59046;-76
2023/02/28 03:08:37;;;;;;;7.10;4.50;;;;;;;-3.08;87.84;102375.80;108776;1257;73234;-76
2023/02/28 03:11:08;;;;;;;7.80;4.90;;;;;;;-3.10;87.87;102372.58;108739;1257;71214;-76
2023/02/28 03:13:58;;;;;;;10.30;4.90;;;;;;;-3.12;87.77;102373.00;108607;1256;70554;-76
2023/02/28 03:16:45;;;;;;;8.00;4.80;;;;;;;-3.15;87.80;102371.17;108821;1256;60454;-76
2023/02/28 03:19:36;;;;;;;10.20;4.90;;;;;;;-3.17;87.82;102371.92;108794;1256;61483;-76
2023/02/28 03:22:09;;;;;;;7.20;4.40;;;;;;;-3.18;87.90;102371.09;108829;1256;73828;-76
2023/02/28 03:25:13;;;;;;;9.00;5.20;;;;;;;-3.19;88.08;102373.35;108825;1256;70042;-76
2023/02/28 03:28:15;;;;;;;8.70;5.30;;;;;;;-3.20;88.01;102372.55;108333;1257;71145;-76
2023/02/28 03:30:42;;;;;;;9.60;4.70;;;;;;;-3.21;88.21;102372.05;108504;1257;59924;-76
2023/02/28 03:33:15;;;;;;;8.70;5.40;;;;;;;-3.23;88.23;102370.38;108793;1256;60324;-76
2023/02/28 03:35:48;;;;;;;10.00;5.30;;;;;;;-3.24;88.16;102370.41;108749;1257;74746;-77
2023/02/28 03:38:22;;;;;;;8.40;5.50;;;;;;;-3.25;88.12;102371.32;108742;1256;70152;-76
2023/02/28 03:40:55;;;;;;;7.90;4.90;;;;;;;-3.26;88.20;102370.31;108820;1256;71265;-76
2023/02/28 03:43:33;;;;;;;7.30;4.90;;;;;;;-3.28;88.22;102373.10;108675;1257;60576;-77
2023/02/28 03:46:03;;;;;;;8.30;4.90;;;;;;;-3.29;88.34;102372.95;108725;1257;59659;-77
2023/02/28 03:48:55;;;;;;;10.30;5.90;;;;;;;-3.30;88.47;102369.17;108796;1256;75239;-77
2023/02/28 03:51:24;;;;;;;9.70;5.30;;;;;;;-3.29;88.46;102367.78;108753;1256;69718;-76
2023/02/28 03:53:55;;;;;;;9.90;5.40;;;;;;;-3.30;88.57;102369.35;108695;1257;71709;-76
2023/02/28 03:56:28;;;;;;;7.80;4.90;;;;;;;-3.31;88.45;102365.23;108703;1257;60426;-77
2023/02/28 03:59:04;;;;;;;8.10;4.90;;;;;;;-3.33;88.33;102366.15;108702;1256;58877;-77
2023/02/28 04:01:38;;;;;;;8.30;5.30;;;;;;;-3.35;88.40;102366.21;108793;1256;74018;-77
2023/02/28 04:04:05;;;;;;;9.70;5.40;;;;;;;-3.38;88.55;102370.64;108701;1259;69475;-77
2023/02/28 04:06:34;;;;;;;8.40;5.40;;;;;;;-3.39;88.70;102374.99;108770;1256;71255;-77
2023/02/28 04:09:02;;;;;;;9.90;5.30;;;;;;;-3.40;88.60;102371.21;108608;1257;61136;-77
2023/02/28 04:11:44;;;;;;;8.00;4.90;;;;;;;-3.41;88.73;102372.09;108786;1256;59140;-77
2023/02/28 04:14:12;;;;;;;9.10;5.50;;;;;;;-3.43;88.92;102374.91;108746;1260;74119;-77
2023/02/28 04:16:44;;;;;;;10.40;5.10;;;;;;;-3.46;88.63;102375.88;108714;1257;70042;-77
2023/02/28 04:19:12;;;;;;;11.40;5.60;;;;;;;-3.48;88.70;102375.41;108779;1258;72854;-77
2023/02/28 04:21:51;;;;;;;14.00;6.20;;;;;;;-3.52;88.55;102376.05;108705;1257;62202;-77
2023/02/28 04:24:23;;;;;;;10.80;5.80;;;;;;;-3.55;88.33;102378.55;108817;1256;59659;-77
2023/02/28 04:26:55;;;;;;;10.90;5.70;;;;;;;-3.57;88.35;102377.38;108660;1256;74811;-76
2023/02/28 04:29:27;;;;;;;10.40;6.00;;;;;;;-3.59;88.31;102381.42;108596;1256;71977;-76
2023/02/28 04:31:57;;;;;;;12.00;6.60;;;;;;;-3.61;88.34;102380.96;108770;1256;72063;-76
2023/02/28 04:34:29;;;;;;;12.70;6.80;;;;;;;-3.64;88.46;102381.75;108787;1256;60458;-76
2023/02/28 04:36:57;;;;;;;13.00;6.60;;;;;;;-3.66;88.60;102383.19;108808;1256;59255;-76
2023/02/28 04:39:40;;;;;;;11.60;6.60;;;;;;;-3.68;88.58;102384.60;108827;1256;73845;-76
2023/02/28 04:42:08;;;;;;;9.90;6.10;;;;;;;-3.68;88.76;102383.40;108722;1256;70090;-76
2023/02/28 04:44:35;;;;;;;9.70;5.80;;;;;;;-3.68;88.75;102386.69;108707;1257;72079;-76
2023/02/28 04:47:03;;;;;;;11.30;6.30;;;;;;;-3.71;88.62;102387.61;108773;1256;61714;-76
2023/02/28 04:49:30;;;;;;;11.30;6.00;;;;;;;-3.72;88.87;102388.86;108735;1257;59867;-76
2023/02/28 04:51:57;;;;;;;8.70;4.90;;;;;;;-3.73;88.84;102387.85;108684;1256;74699;-76
2023/02/28 04:54:24;;;;;;;9.00;5.30;;;;;;;-3.74;88.65;102387.02;108701;1256;70018;-76
2023/02/28 04:56:51;;;;;;;10.70;5.10;;;;;;;-3.76;88.65;102387.41;108613;1256;72175;-76
2023/02/28 04:59:19;;;;;;;10.30;5.60;;;;;;;-3.78;88.82;102389.35;108693;1256;60556;-76
2023/02/28 05:01:47;;;;;;;11.80;6.70;;;;;;;-3.79;88.86;102388.54;108711;1256;60204;-76
2023/02/28 05:04:14;;;;;;;9.30;5.90;;;;;;;-3.81;88.68;102391.01;108722;1256;73691;-76
2023/02/28 05:06:42;;;;;;;8.00;5.60;;;;;;;-3.85;88.78;102392.67;108587;1257;70942;-76
2023/02/28 05:09:11;;;;;;;10.80;6.30;;;;;;;-3.91;88.88;102394.89;108666;1256;71123;-76
2023/02/28 05:11:39;;;;;;;11.30;6.50;;;;;;;-3.94;89.44;102402.56;108710;1256;61737;-76
2023/02/28 05:14:11;;;;;;;11.70;6.00;;;;;;;-3.97;90.27;102404.55;108703;1256;60050;-76
2023/02/28 05:16:38;;;;;;;8.80;6.30;;;;;;;-3.96;90.60;102402.63;108770;1257;74371;-76
2023/02/28 05:19:05;;;;;;;9.50;6.40;;;;;;;-3.93;90.65;102404.10;108728;1256;69743;-76
2023/02/28 05:21:34;;;;;;;10.00;6.40;;;;;;;-3.90;90.69;102407.14;108768;1256;72111;-76
2023/02/28 05:24:06;;;;;;;9.50;6.40;;;;;;;-3.89;90.92;102407.96;108600;1257;62464;-76
2023/02/28 05:26:41;;;;;;;9.70;6.30;;;;;;;-3.87;90.90;102403.08;108783;1259;58821;-76
2023/02/28 05:29:09;;;;;;;11.50;6.70;;;;;;;-3.84;91.00;102400.77;108690;1259;72609;-76
2023/02/28 05:31:36;;;;;;;12.20;7.10;;;;;;;-3.83;90.95;102404.36;108763;1256;71446;-76
2023/02/28 05:34:04;;;;;;;13.70;7.10;;;;;;;-3.80;90.65;102404.10;108770;1256;74014;-76
2023/02/28 05:36:33;;;;;;;9.90;6.80;;;;;;;-3.79;90.81;102405.64;108809;1256;60437;-76
2023/02/28 05:38:59;;;;;;;18.20;9.80;;;;;;;-3.80;90.74;102408.77;108710;1257;59438;-77
2023/02/28 05:41:26;;;;;;;17.50;9.70;;;;;;;-3.79;90.52;102411.86;108579;1256;74071;-76
2023/02/28 05:43:54;;;;;;;16.10;8.90;;;;;;;-3.79;90.52;102404.95;108667;1256;71168;-76
2023/02/28 05:46:21;;;;;;;12.90;7.30;;;;;;;-3.79;90.31;102410.13;108761;1257;72051;-76
2023/02/28 05:48:48;;;;;;;11.50;7.60;;;;;;;-3.82;90.02;102410.55;108667;1259;61722;-76
2023/02/28 05:51:16;;;;;;;12.10;7.20;;;;;;;-3.82;89.95;102410.40;108781;1256;60170;-76
2023/02/28 05:53:42;;;;;;;14.20;7.70;;;;;;;-3.83;89.97;102410.61;108688;1256;74115;-76
2023/02/28 05:56:10;;;;;;;12.60;7.70;;;;;;;-3.85;89.89;102410.65;108817;1256;69966;-76
2023/02/28 05:58:36;;;;;;;15.10;8.40;;;;;;;-3.89;89.82;102411.60;108634;1256;71268;-76
2023/02/28 06:01:25;;;;;;;15.30;7.80;;;;;;;-3.92;89.78;102418.08;108640;1257;60731;-76
2023/02/28 06:03:53;;;;;;;13.90;7.60;;;;;;;-3.94;89.87;102416.05;108697;1256;59612;-76
2023/02/28 06:06:20;;;;;;;11.00;6.90;;;;;;;-3.97;89.76;102413.54;108701;1256;74429;-76
2023/02/28 06:08:47;;;;;;;12.80;6.80;;;;;;;-3.98;89.98;102414.10;108725;1258;70905;-76
2023/02/28 06:11:14;;;;;;;11.80;7.40;;;;;;;-4.00;89.93;102414.66;108795;1256;74236;-76
2023/02/28 06:13:40;;;;;;;17.60;9.80;;;;;;;-4.01;89.85;102419.87;108671;1256;60704;-76
2023/02/28 06:16:10;;;;;;;13.00;7.00;;;;;;;-4.04;89.91;102419.75;108839;1256;59173;-76
2023/02/28 06:18:37;;;;;;;12.00;7.90;;;;;;;-4.05;89.96;102420.15;108841;1256;74437;-77
2023/02/28 06:21:04;;;;;;;14.30;8.60;;;;;;;-4.06;90.20;102421.88;108737;1256;68742;-76
2023/02/28 06:23:32;;;;;;;12.90;7.90;;;;;;;-4.06;90.16;102419.98;108707;1256;73133;-76
2023/02/28 06:26:01;;;;;;;12.30;7.30;;;;;;;-4.06;90.21;102418.08;108766;1256;61820;-76
2023/02/28 06:28:28;;;;;;;12.60;7.30;;;;;;;-4.05;90.27;102420.65;108746;1257;59098;-76
2023/02/28 06:30:56;;;;;;;11.50;7.10;;;;;;;-4.02;90.35;102424.21;108811;1256;74400;-76
2023/02/28 06:33:23;;;;;;;17.70;7.80;;;;;;;-3.98;90.44;102425.84;108732;1256;70611;-78
2023/02/28 06:35:50;;;;;;;12.40;8.70;;;;;;;-3.94;90.74;102431.95;108817;1256;71597;-78
2023/02/28 06:38:19;;;;;;;13.20;8.60;;;;;;;-3.87;90.97;102427.45;108776;1256;61821;-78
2023/02/28 06:40:56;;;;;;;13.30;8.30;;;;;;;-3.80;90.95;102434.20;108856;1256;60114;-78
2023/02/28 06:43:25;;;;;;;14.50;8.60;;;;;;;-3.72;90.86;102432.94;108862;1256;73477;-78
2023/02/28 06:45:55;;;;;;;13.40;8.20;;;;;;;-3.66;90.49;102433.83;108647;1256;69400;-78
2023/02/28 06:48:23;;;;;;;14.20;9.20;;;;;;;-3.60;90.63;102443.36;108864;1256;72998;-78
2023/02/28 06:50:50;;;;;;;16.10;8.40;;;;;;;-3.53;90.49;102442.83;108910;1256;60525;-78
2023/02/28 06:53:17;;;;;;;14.10;8.80;;;;;;;-3.45;90.57;102449.87;108742;1257;60355;-78
2023/02/28 06:55:44;;;;;;;12.70;8.30;;;;;;;-3.39;90.27;102457.67;108673;1256;73136;-78
2023/02/28 06:58:14;;;;;;;14.00;8.30;;;;;;;-3.34;90.21;102461.15;108842;1256;69990;-78
2023/02/28 07:00:45;;;;;;;12.80;7.90;;;;;;;-3.28;90.19;102463.25;108798;1257;73956;-78
2023/02/28 07:03:12;;;;;;;13.60;7.80;;;;;;;-3.21;90.27;102458.76;108882;1256;60478;-78
2023/02/28 07:05:39;;;;;;;11.90;7.90;;;;;;;-3.12;90.38;102454.85;108798;1256;60014;-79
2023/02/28 07:08:12;;;;;;;14.30;9.00;;;;;;;-2.96;90.67;102468.61;108870;1256;74686;-78
2023/02/28 07:10:39;;;;;;;14.90;8.20;;;;;;;-2.75;90.69;102464.02;108882;1256;70046;-78
2023/02/28 07:13:08;;;;;;;11.10;6.70;;;;;;;-2.68;89.96;102464.50;108814;1256;70143;-78
2023/02/28 07:15:36;;;;;;;12.80;6.80;;;;;;;-2.63;89.79;102466.25;108741;1257;61009;-78
2023/02/28 07:18:07;;;;;;;11.50;6.90;;;;;;;-2.57;89.81;102468.82;108902;1256;59241;-78
2023/02/28 07:20:35;;;;;;;10.50;6.70;;;;;;;-2.48;89.77;102465.59;108766;1257;75353;-78
2023/02/28 07:23:01;;;;;;;12.20;7.10;;;;;;;-2.36;90.19;102464.02;108901;1256;71207;-78
2023/02/28 07:25:29;;;;;;;13.60;7.50;;;;;;;-2.22;90.06;102468.80;108824;1256;71178;-78
2023/02/28 07:27:56;;;;;;;11.50;7.50;;;;;;;-2.08;90.17;102470.10;108793;1256;61748;-78
2023/02/28 07:30:23;;;;;;;12.60;7.60;;;;;;;-1.94;90.28;102469.83;108878;1256;59893;-79
2023/02/28 07:32:50;;;;;;;13.10;7.80;;;;;;;-1.82;89.61;102472.71;108880;1256;73353;-79
2023/02/28 07:35:19;;;;;;;11.40;7.90;;;;;;;-1.74;89.36;102473.82;108723;1256;69826;-79
2023/02/28 07:37:46;;;;;;;12.50;7.40;;;;;;;-1.64;89.28;102471.91;108836;1256;72414;-79
2023/02/28 07:40:14;;;;;;;11.60;7.20;;;;;;;-1.51;89.29;102471.84;108721;1256;60574;-79
2023/02/28 07:42:41;;;;;;;10.40;7.10;;;;;;;-1.38;89.21;102475.71;108882;1257;59908;-78
2023/02/28 07:45:11;;;;;;;10.80;6.90;;;;;;;-1.26;88.82;102478.40;108909;1256;74724;-78
2023/02/28 07:47:39;;;;;;;11.50;7.20;;;;;;;-1.13;88.82;102478.98;108193;1257;688735;-78
2023/02/28 07:50:07;;;;;;;11.80;8.00;;;;;;;-1.00;88.31;102475.92;108878;1256;70431;-78
2023/02/28 07:52:35;;;;;;;13.10;7.20;;;;;;;-0.87;88.05;102473.16;108844;1256;60925;-78
2023/02/28 07:55:04;;;;;;;9.90;6.60;;;;;;;-0.71;88.14;102473.98;108819;1256;59184;-79
2023/02/28 07:57:31;;;;;;;9.80;6.50;;;;;;;-0.57;87.77;102474.84;108815;1256;73137;-78
2023/02/28 08:00:03;;;;;;;13.00;7.00;;;;;;;-0.46;87.14;102470.08;108814;1256;70243;-79
2023/02/28 08:02:30;;;;;;;10.80;6.30;;;;;;;-0.36;86.70;102471.23;108868;1257;71200;-78
2023/02/28 08:04:57;;;;;;;10.70;6.30;;;;;;;-0.25;86.42;102469.23;108691;1257;60734;-79
2023/02/28 08:07:24;;;;;;;9.70;6.50;;;;;;;-0.16;85.51;102464.73;108764;1257;60351;-79
2023/02/28 08:09:51;;;;;;;11.00;6.10;;;;;;;-0.08;85.57;102463.70;108829;1258;73502;-79
2023/02/28 08:12:19;;;;;;;9.90;5.90;;;;;;;0.07;85.75;102461.18;108752;1257;69948;-79
2023/02/28 08:14:45;;;;;;;10.70;5.90;;;;;;;0.20;85.22;102458.88;108930;1256;70917;-79
2023/02/28 08:17:13;;;;;;;9.60;6.00;;;;;;;0.34;84.96;102460.56;108792;1256;60948;-79
2023/02/28 08:19:39;;;;;;;9.00;5.60;;;;;;;0.51;85.24;102465.59;108761;1257;60121;-79
2023/02/28 08:22:07;;;;;;;9.80;6.10;;;;;;;0.67;84.61;102465.07;108762;1257;74813;-79
2023/02/28 08:24:34;;;;;;;9.50;5.40;;;;;;;0.80;83.83;102467.45;108809;1256;72054;-80
2023/02/28 08:27:01;;;;;;;9.90;5.50;;;;;;;0.94;83.43;102466.48;108991;1256;72375;-79
2023/02/28 08:29:31;;;;;;;9.20;5.40;;;;;;;1.09;83.23;102471.88;108731;1257;60946;-80
2023/02/28 08:31:59;;;;;;;10.30;5.10;;;;;;;1.25;82.60;102472.76;108836;1257;59103;-80
2023/02/28 08:34:26;;;;;;;9.00;5.30;;;;;;;1.40;82.53;102474.49;108843;1257;74436;-80
2023/02/28 08:36:53;;;;;;;9.10;5.00;;;;;;;1.55;82.00;102477.63;108836;1257;69639;-80
2023/02/28 08:39:21;;;;;;;7.80;4.60;;;;;;;1.66;80.96;102479.17;108980;1256;72402;-80
2023/02/28 08:41:48;;;;;;;9.00;4.70;;;;;;;1.80;80.76;102478.17;108894;1256;59640;-80
2023/02/28 08:44:24;;;;;;;6.40;4.00;;;;;;;1.99;80.36;102486.34;108986;1256;60797;-80
2023/02/28 08:46:52;;;;;;;6.20;4.00;;;;;;;2.14;79.54;102483.15;108818;1256;74518;-80
2023/02/28 08:49:19;;;;;;;5.50;3.70;;;;;;;2.29;79.11;102484.88;108905;1256;69659;-79
2023/02/28 08:51:46;;;;;;;8.20;3.80;;;;;;;2.40;77.93;102482.88;108952;1257;71112;-80
2023/02/28 08:54:15;;;;;;;6.90;3.60;;;;;;;2.51;77.23;102480.43;108827;1259;60219;-80
2023/02/28 08:56:43;;;;;;;6.40;3.60;;;;;;;2.63;77.09;102485.77;109023;1256;59266;-80
2023/02/28 09:02:57;;;;;;;4.90;3.10;;;;;;;3.00;76.02;102483.81;108936;1256;69626;-80
2023/02/28 09:05:24;;;;;;;6.30;3.20;;;;;;;3.14;75.00;102481.67;108949;1256;72375;-80
2023/02/28 09:07:51;;;;;;;4.00;2.30;;;;;;;3.24;73.13;102482.02;109030;1259;60022;-79
2023/02/28 09:10:17;;;;;;;4.50;2.30;;;;;;;3.31;72.68;102484.96;108819;1257;58811;-79
2023/02/28 09:12:46;;;;;;;5.20;2.80;;;;;;;3.40;71.81;102485.69;108910;1257;73156;-80
2023/02/28 09:15:13;;;;;;;4.80;2.20;;;;;;;3.48;71.19;102485.61;108889;1257;70059;-79
2023/02/28 09:17:41;;;;;;;4.60;2.40;;;;;;;3.57;71.22;102489.83;108757;1257;72816;-80
2023/02/28 09:20:11;;;;;;;3.70;2.20;;;;;;;3.67;70.22;102489.09;108859;1256;59971;-80
2023/02/28 09:22:37;;;;;;;3.50;2.10;;;;;;;3.74;69.47;102486.98;108783;1257;59439;-80
2023/02/28 09:25:05;;;;;;;4.80;2.50;;;;;;;3.79;68.88;102488.23;108916;1256;72468;-79
2023/02/28 09:27:32;;;;;;;4.40;2.30;;;;;;;3.90;69.47;102486.23;108846;1257;70871;-79
2023/02/28 09:29:59;;;;;;;4.10;2.40;;;;;;;4.01;69.55;102486.79;108954;1256;71120;-79
2023/02/28 09:32:26;;;;;;;3.40;2.20;;;;;;;4.14;69.31;102484.67;108907;1256;59960;-80
2023/02/28 09:34:53;;;;;;;4.80;1.90;;;;;;;4.30;68.95;102485.67;108821;1256;59132;-80
2023/02/28 09:37:20;;;;;;;3.20;1.90;;;;;;;4.40;67.43;102485.45;108802;1256;73547;-80
2023/02/28 09:39:47;;;;;;;3.60;2.00;;;;;;;4.48;66.89;102487.25;108790;1257;72243;-79
2023/02/28 09:42:32;;;;;;;3.80;2.10;;;;;;;4.57;66.05;102487.40;108795;1258;71812;-79
2023/02/28 09:45:01;;;;;;;2.70;1.70;;;;;;;4.69;66.16;102482.50;108928;1256;59959;-79
2023/02/28 09:47:36;;;;;;;3.20;1.70;;;;;;;4.77;65.40;102483.41;108886;1257;59337;-79
2023/02/28 09:50:17;;;;;;;3.40;2.00;;;;;;;4.85;65.27;102487.10;108768;1257;73458;-79
2023/02/28 09:52:48;;;;;;;4.00;1.90;;;;;;;4.99;65.41;102488.73;108966;1256;71038;-79
2023/02/28 09:55:20;;;;;;;5.00;1.50;;;;;;;5.06;63.35;102488.84;108931;1256;72814;-80
2023/02/28 09:57:46;;;;;;;5.30;1.50;;;;;;;5.05;61.81;102487.64;108852;1257;59299;-79
2023/02/28 10:00:17;;;;;;;3.30;1.80;;;;;;;5.06;61.86;102489.34;108776;1256;59096;-79
2023/02/28 10:02:57;;;;;;;2.90;1.60;;;;;;;5.11;62.05;102488.02;108901;1256;73411;-79
2023/02/28 10:05:28;;;;;;;4.80;1.70;;;;;;;5.17;61.90;102487.06;108930;1256;70169;-79
2023/02/28 10:08:14;;;;;;;2.90;1.50;;;;;;;5.21;61.11;102485.41;108953;1257;73649;-79
2023/02/28 10:10:53;;;;;;;3.40;1.50;;;;;;;5.27;61.13;102484.16;108726;1256;59955;-80
2023/02/28 10:13:45;;;;;;;2.10;1.30;;;;;;;5.35;60.23;102485.29;108888;1256;59943;-79
2023/02/28 10:16:22;;;;;;;2.70;1.20;;;;;;;5.34;58.44;102484.45;108858;1256;74382;-79
2023/02/28 10:18:56;;;;;;;4.00;1.30;;;;;;;5.38;58.67;102481.06;108757;1257;70866;-79
2023/02/28 10:21:33;;;;;;;3.20;1.10;;;;;;;5.39;58.85;102481.20;108896;1258;72646;-79
2023/02/28 10:24:27;;;;;;;3.70;1.40;;;;;;;5.39;58.95;102478.01;108872;1257;59046;-79
2023/02/28 10:26:59;;;;;;;3.50;1.40;;;;;;;5.44;58.87;102482.27;108873;1257;58861;-80
2023/02/28 10:29:31;;;;;;;2.50;1.20;;;;;;;5.52;58.46;102481.05;108894;1256;74154;-80
2023/02/28 10:32:01;;;;;;;1.90;1.10;;;;;;;5.62;57.50;102483.91;108781;1256;69714;-80
2023/02/28 10:34:28;;;;;;;3.20;1.10;;;;;;;5.68;56.83;102482.12;108803;1259;72805;-80
2023/02/28 10:36:55;;;;;;;3.60;1.10;;;;;;;5.77;56.50;102483.98;108885;1256;59272;-79
2023/02/28 10:39:41;;;;;;;2.10;1.10;;;;;;;5.89;55.87;102483.77;108864;1258;61064;-80
2023/02/28 10:42:26;;;;;;;2.50;1.00;;;;;;;5.95;55.06;102483.20;108901;1256;75255;-80
2023/02/28 10:45:16;;;;;;;3.00;1.20;;;;;;;5.91;54.42;102482.20;108894;1256;70108;-80
2023/02/28 10:47:55;;;;;;;3.20;1.30;;;;;;;5.76;54.01;102482.48;108889;1256;71161;-80
2023/02/28 10:50:44;;;;;;;3.40;1.20;;;;;;;5.65;53.79;102481.23;108800;1258;59456;-80
2023/02/28 10:53:25;;;;;;;3.20;1.30;;;;;;;5.64;54.77;102480.94;108847;1258;58919;-80
2023/02/28 10:56:03;;;;;;;2.60;1.20;;;;;;;5.72;54.12;102480.94;108890;1256;73901;-80
2023/02/28 10:58:57;;;;;;;2.60;1.30;;;;;;;5.92;53.88;102480.59;108729;1257;72204;-80
2023/02/28 11:01:48;;;;;;;2.40;1.00;;;;;;;6.00;52.74;102481.45;108636;1256;72822;-80
2023/02/28 11:04:29;;;;;;;2.70;0.90;;;;;;;5.93;49.87;102479.28;108890;1256;59151;-80
2023/02/28 11:07:01;;;;;;;2.30;1.10;;;;;;;5.87;50.07;102474.02;108926;1256;59042;-80
2023/02/28 11:09:34;;;;;;;2.70;1.00;;;;;;;5.84;50.21;102474.96;108905;1259;74794;-80
2023/02/28 11:12:04;;;;;;;2.90;1.10;;;;;;;5.94;51.34;102479.89;108791;1257;70098;-80
2023/02/28 11:14:40;;;;;;;2.70;0.90;;;;;;;6.08;51.24;102473.52;108877;1256;73034;-80
2023/02/28 11:17:28;;;;;;;2.00;1.20;;;;;;;6.17;51.72;102472.98;108891;1256;59294;-80
2023/02/28 11:20:03;;;;;;;2.70;1.30;;;;;;;6.35;51.86;102465.77;108691;1257;59581;-80
2023/02/28 11:22:35;;;;;;;2.20;1.10;;;;;;;6.54;51.30;102467.87;108888;1256;73367;-80
2023/02/28 11:25:08;;;;;;;3.70;1.30;;;;;;;6.71;50.61;102463.17;108901;1260;70308;-80
2023/02/28 11:27:50;;;;;;;3.30;1.10;;;;;;;6.98;49.88;102462.31;108862;1256;71266;-79
2023/02/28 11:30:26;;;;;;;2.70;1.10;;;;;;;7.28;49.59;102456.88;108837;1256;59374;-79
2023/02/28 11:32:54;;;;;;;2.70;1.00;;;;;;;7.39;47.05;102455.17;108905;1257;59186;-79
2023/02/28 11:35:34;;;;;;;2.50;1.20;;;;;;;7.45;47.42;102451.79;108886;1256;74111;-79
2023/02/28 11:38:01;;;;;;;2.60;1.30;;;;;;;7.44;46.75;102448.37;108761;1259;70084;-79
2023/02/28 11:41:06;;;;;;;5.10;1.60;;;;;;;7.39;47.19;102445.70;108838;1258;71677;-79
2023/02/28 11:43:50;;;;;;;3.40;1.30;;;;;;;7.23;47.87;102446.12;108762;1256;59431;-80